MST,Max TemperatureF,Mean TemperatureF,Min TemperatureF,Max Dew PointF,MeanDew PointF,Min DewpointF,Max Humidity, Mean Humidity, Min Humidity, Max Sea Level PressureIn, Mean Sea Level PressureIn, Min Sea Level PressureIn, Max VisibilityMiles, Mean VisibilityMiles, Min VisibilityMiles, Max Wind SpeedMPH, Mean Wind SpeedMPH, Max Gust SpeedMPH,PrecipitationIn, CloudCover, Events, WindDirDegrees
2011-10-1,96,86,75,54,49,46,38,24,19,29.97,29.91,29.87,10,10,10,9,6,,0.00,5,,140
2011-10-2,96,84,71,55,51,46,53,30,19,30.01,29.93,29.84,10,10,10,12,6,,0.00,2,,62
2011-10-3,96,87,78,55,50,43,39,27,18,29.96,29.87,29.79,15,13,10,14,9,,0.00,5,,137
2011-10-4,93,81,68,61,52,45,68,42,19,29.84,29.80,29.74,10,9,3,23,12,52,0.00,6,Rain-Thunderstorm,201
2011-10-5,80,70,60,55,48,43,82,46,26,29.94,29.85,29.75,10,9,7,12,5,,0.00,6,,233
2011-10-6,73,68,64,52,36,30,60,31,22,29.84,29.81,29.76,15,12,10,15,12,23,0.00,4,,233
2011-10-7,75,63,51,39,34,25,58,33,16,29.99,29.95,29.90,20,12,10,14,9,,0.00,2,,241
2011-10-8,78,66,53,36,32,28,51,27,16,30.04,29.97,29.91,20,12,10,12,7,,0.00,1,,245
2011-10-9,82,68,55,37,34,30,51,26,15,29.99,29.92,29.85,15,10,10,7,4,,0.00,2,,70
2011-10-10,86,70,55,37,35,32,51,24,14,29.95,29.87,29.82,15,14,10,9,5,,0.00,2,,73
2011-10-11,89,74,60,37,36,34,39,23,14,29.92,29.86,29.81,10,10,10,9,6,,0.00,0,,245
2011-10-12,95,78,60,43,40,32,42,23,12,29.95,29.88,29.81,10,10,10,6,5,,0.00,0,,226
2011-10-13,98,81,64,43,39,30,45,22,10,29.93,29.85,29.78,15,11,10,9,6,,0.00,0,,137
2011-10-14,96,80,64,43,40,37,37,22,13,29.92,29.86,29.80,20,11,10,12,7,,0.00,2,,125
2011-10-15,98,81,64,45,40,34,45,23,10,29.94,29.86,29.80,10,10,10,6,4,,0.00,1,,63
2011-10-16,96,76,55,45,42,36,49,27,14,29.97,29.91,29.84,20,12,10,12,7,,0.00,0,,250
2011-10-17,96,80,64,46,44,43,45,27,16,30.02,29.94,29.88,15,14,10,12,6,,0.00,0,,228
2011-10-18,96,80,64,43,38,34,45,22,11,30.04,29.95,29.88,10,10,10,7,6,,0.00,1,,22
2011-10-19,95,78,60,46,39,37,45,24,13,29.93,29.85,29.79,10,10,10,12,7,,0.00,0,,63
2011-10-20,93,78,62,43,40,37,45,26,15,29.99,29.95,29.90,10,10,10,8,7,,0.00,0,,59
2011-10-21,91,76,60,57,50,43,59,36,21,30.10,30.03,29.97,10,10,10,9,6,,0.00,1,,53
2011-10-22,96,80,64,48,46,39,49,28,14,30.05,29.98,29.92,10,10,10,8,5,,0.00,0,,238
2011-10-23,95,80,66,48,44,39,46,28,15,30.02,29.95,29.90,10,10,10,8,6,,0.00,0,,66
2011-10-24,89,76,62,52,46,43,52,33,22,30.01,29.95,29.90,15,11,10,8,5,,0.00,5,,97
2011-10-25,89,78,66,64,58,52,69,50,39,29.99,29.90,29.81,10,10,5,17,7,29,0.00,5,Rain-Thunderstorm,256
2011-10-26,80,72,64,61,50,32,88,47,23,29.88,29.83,29.77,10,10,10,16,10,,0.00,3,Rain,236
2011-10-27,75,63,51,41,39,37,62,37,25,30.04,29.99,29.94,15,12,10,10,4,,0.00,0,,355
2011-10-28,84,70,55,48,43,37,51,36,25,30.11,30.05,30.00,10,10,10,9,7,,0.00,2,,56
2011-10-29,86,70,55,46,45,41,58,36,25,30.08,30.01,29.92,10,10,10,9,7,,0.00,3,,39
2011-10-30,87,72,57,46,45,43,59,37,22,30.11,30.04,29.98,10,10,10,9,6,,0.00,0,,66
2011-10-31,89,73,57,46,43,39,59,34,17,30.04,29.96,29.89,15,12,10,10,6,,0.00,2,,83